createdAt,value
2019-04-05T00:00:34.491Z,29.4118
2019-04-05T00:01:36.780Z,29.3477
2019-04-05T00:02:39.078Z,29.3935
2019-04-05T00:03:41.362Z,29.4347
2019-04-05T00:04:43.671Z,29.4209
2019-04-05T00:05:45.965Z,29.4667
2019-04-05T00:06:48.260Z,29.4362
2019-04-05T00:07:50.551Z,29.4224
2019-04-05T00:08:52.845Z,29.4636
2019-04-05T00:09:55.133Z,29.4636
2019-04-05T00:10:57.245Z,29.4667
2019-04-05T00:11:59.534Z,29.4957
2019-04-05T00:13:01.824Z,29.5262
2019-04-05T00:14:04.127Z,29.5262
2019-04-05T00:15:15.328Z,29.4942
2019-04-05T00:16:14.676Z,29.4957
2019-04-05T00:17:16.980Z,29.4621
2019-04-05T00:18:19.271Z,29.4774
2019-04-05T00:19:21.616Z,29.5216
2019-04-05T00:20:23.904Z,29.5262
2019-04-05T00:21:26.199Z,29.4621
2019-04-05T00:22:28.487Z,29.4759
2019-04-05T00:23:30.777Z,29.5079
2019-04-05T00:24:33.068Z,29.4774
2019-04-05T00:25:35.363Z,29.5079
2019-04-05T00:26:37.649Z,29.4942
2019-04-05T00:27:39.941Z,29.5079
2019-04-05T00:28:42.237Z,29.5216
2019-04-05T00:29:44.537Z,29.3904
2019-04-05T00:30:46.833Z,29.4621
2019-04-05T00:31:49.123Z,29.4621
2019-04-05T00:32:51.416Z,29.5689
2019-04-05T00:33:53.703Z,29.5216
2019-04-05T00:34:55.991Z,29.4759
2019-04-05T00:35:58.283Z,29.4484
2019-04-05T00:37:00.575Z,29.5827
2019-04-05T00:38:02.866Z,29.5216
2019-04-05T00:39:05.146Z,29.5354
2019-04-05T00:40:07.440Z,29.4163
2019-04-05T00:41:09.769Z,29.4774
2019-04-05T00:42:12.055Z,29.5079
2019-04-05T00:43:14.346Z,29.4316
2019-04-05T00:44:16.636Z,29.4728
2019-04-05T00:45:27.968Z,29.4911
2019-04-05T00:46:27.170Z,29.5674
2019-04-05T00:47:29.466Z,29.4591
2019-04-05T00:48:31.753Z,29.4621
2019-04-05T00:49:34.039Z,29.5644
2019-04-05T00:50:36.332Z,29.5369
2019-04-05T00:51:38.623Z,29.4759
2019-04-05T00:52:40.910Z,29.4759
2019-04-05T00:53:42.252Z,29.4438
2019-04-05T00:54:44.536Z,29.5033
2019-04-05T00:55:46.828Z,29.4896
2019-04-05T00:56:49.129Z,29.4896
2019-04-05T00:57:51.419Z,29.4728
2019-04-05T00:58:53.707Z,29.4133
2019-04-05T00:59:56.016Z,29.4316
2019-04-05T01:00:58.318Z,29.4591
2019-04-05T01:02:00.603Z,29.4026
2019-04-05T01:03:02.905Z,29.4896
2019-04-05T01:04:05.193Z,29.4438
2019-04-05T01:05:07.481Z,29.4453
2019-04-05T01:06:09.783Z,29.3706
2019-04-05T01:07:12.065Z,29.4591
2019-04-05T01:08:14.354Z,29.4591
2019-04-05T01:09:16.637Z,29.4759
2019-04-05T01:10:18.936Z,29.5354
2019-04-05T01:11:21.230Z,29.4163
2019-04-05T01:12:23.517Z,29.4865
2019-04-05T01:13:25.809Z,29.4316
2019-04-05T01:14:28.098Z,29.5644
2019-04-05T01:15:40.280Z,29.4408
2019-04-05T01:16:38.641Z,29.4453
2019-04-05T01:17:40.962Z,29.4163
2019-04-05T01:18:43.247Z,29.4133
2019-04-05T01:19:45.542Z,29.4255
2019-04-05T01:20:47.828Z,29.4575
2019-04-05T01:21:50.117Z,29.5491
2019-04-05T01:22:52.412Z,29.4713
2019-04-05T01:23:54.699Z,29.4865
2019-04-05T01:24:57.024Z,29.4728
2019-04-05T01:25:59.317Z,29.5033
2019-04-05T01:27:01.662Z,29.5735
2019-04-05T01:28:03.953Z,29.5323
2019-04-05T01:29:06.253Z,29.4118
2019-04-05T01:30:08.544Z,29.3980
2019-04-05T01:31:10.831Z,29.6086
2019-04-05T01:32:13.120Z,29.5323
2019-04-05T01:33:15.413Z,29.5460
2019-04-05T01:34:17.704Z,29.5460
2019-04-05T01:35:19.990Z,29.4850
2019-04-05T01:36:22.342Z,29.4987
2019-04-05T01:37:24.631Z,29.6086
2019-04-05T01:38:26.922Z,29.4850
2019-04-05T01:39:29.215Z,29.5918
2019-04-05T01:40:31.511Z,29.5140
2019-04-05T01:41:33.801Z,29.5277
2019-04-05T01:42:36.087Z,29.5140
2019-04-05T01:43:38.372Z,29.5003
2019-04-05T01:44:40.669Z,29.5598
2019-04-05T01:45:53.014Z,29.5766
2019-04-05T01:46:51.278Z,29.5903
2019-04-05T01:47:53.570Z,29.4957
2019-04-05T01:48:55.868Z,29.5140
2019-04-05T01:49:58.159Z,29.5598
2019-04-05T01:51:00.448Z,29.5308
2019-04-05T01:52:02.739Z,29.5308
2019-04-05T01:53:05.031Z,29.6498
2019-04-05T01:54:07.320Z,29.6178
2019-04-05T01:55:09.605Z,29.5735
2019-04-05T01:56:11.898Z,29.4987
2019-04-05T01:57:14.182Z,29.5277
2019-04-05T01:58:16.470Z,29.4987
2019-04-05T01:59:18.768Z,29.5277
2019-04-05T02:00:21.064Z,29.5460
2019-04-05T02:01:23.354Z,29.7414
2019-04-05T02:02:25.656Z,29.5277
2019-04-05T02:03:27.944Z,29.5277
2019-04-05T02:04:30.231Z,29.6147
2019-04-05T02:05:39.754Z,29.5277
2019-04-05T02:06:47.013Z,29.5583
2019-04-05T02:07:49.305Z,29.5552
2019-04-05T02:08:51.631Z,29.5415
2019-04-05T02:09:53.920Z,29.6010
2019-04-05T02:10:56.208Z,29.5735
2019-04-05T02:11:58.503Z,29.5277
2019-04-05T02:13:00.796Z,29.5125
2019-04-05T02:14:03.078Z,29.5766
2019-04-05T02:15:05.379Z,29.6605
2019-04-05T02:16:15.250Z,29.5445
2019-04-05T02:17:17.535Z,29.5872
2019-04-05T02:18:19.846Z,29.6132
2019-04-05T02:19:22.140Z,29.5094
2019-04-05T02:20:24.431Z,29.5872
2019-04-05T02:21:26.718Z,29.6040
2019-04-05T02:22:29.027Z,29.6910
2019-04-05T02:23:31.322Z,29.7368
2019-04-05T02:24:33.611Z,29.7063
2019-04-05T02:25:35.907Z,29.5552
2019-04-05T02:26:38.211Z,29.5857
2019-04-05T02:27:40.501Z,29.4820
2019-04-05T02:28:42.790Z,29.4636
2019-04-05T02:29:45.086Z,29.5232
2019-04-05T02:30:47.371Z,29.5369
2019-04-05T02:31:49.672Z,29.4942
2019-04-05T02:32:52.030Z,29.5537
2019-04-05T02:33:54.329Z,29.4942
2019-04-05T02:34:56.629Z,29.6422
2019-04-05T02:35:58.923Z,29.5262
2019-04-05T02:37:01.239Z,29.5872
2019-04-05T02:38:03.550Z,29.5232
2019-04-05T02:39:05.883Z,29.5216
2019-04-05T02:40:08.190Z,29.5079
2019-04-05T02:41:10.474Z,29.4804
2019-04-05T02:42:12.774Z,29.6010
2019-04-05T02:43:15.064Z,29.5399
2019-04-05T02:44:17.353Z,29.5964
2019-04-05T02:45:19.650Z,29.5506
2019-04-05T02:46:24.010Z,29.5644
2019-04-05T02:47:26.655Z,29.4911
2019-04-05T02:48:28.961Z,29.4774
2019-04-05T02:49:31.254Z,29.5827
2019-04-05T02:50:33.551Z,29.5644
2019-04-05T02:51:35.851Z,29.6422
2019-04-05T02:52:38.188Z,29.5216
2019-04-05T02:53:40.494Z,29.6101
2019-04-05T02:54:42.799Z,29.6544
2019-04-05T02:55:45.097Z,29.6864
2019-04-05T02:56:47.400Z,29.5323
2019-04-05T02:57:49.709Z,29.5048
2019-04-05T02:58:52.001Z,29.5644
2019-04-05T02:59:54.301Z,29.5354
2019-04-05T03:00:56.592Z,29.5506
2019-04-05T03:01:58.882Z,29.5186
2019-04-05T03:03:01.186Z,29.4896
2019-04-05T03:04:03.505Z,29.5369
2019-04-05T03:05:05.823Z,29.5216
2019-04-05T03:06:08.132Z,29.5674
2019-04-05T03:07:10.431Z,29.4911
2019-04-05T03:08:12.762Z,29.5644
2019-04-05T03:09:15.066Z,29.5628
2019-04-05T03:10:17.359Z,29.5506
2019-04-05T03:11:19.664Z,29.5628
2019-04-05T03:12:21.959Z,29.5628
2019-04-05T03:13:24.262Z,29.5491
2019-04-05T03:14:26.574Z,29.5186
2019-04-05T03:15:28.877Z,29.5811
2019-04-05T03:16:40.018Z,29.5949
2019-04-05T03:17:39.440Z,29.5811
2019-04-05T03:18:41.298Z,29.5628
2019-04-05T03:19:43.630Z,29.5323
2019-04-05T03:20:45.968Z,29.6223
2019-04-05T03:21:48.266Z,29.5460
2019-04-05T03:22:50.564Z,29.5949
2019-04-05T03:24:00.838Z,29.5354
2019-04-05T03:25:10.798Z,29.6086
2019-04-05T03:26:20.380Z,29.6315
2019-04-05T03:27:22.669Z,29.7414
2019-04-05T03:28:32.907Z,29.6361
2019-04-05T03:29:42.891Z,29.6056
2019-04-05T03:30:52.483Z,29.7108
2019-04-05T03:32:03.426Z,29.7429
2019-04-05T03:33:13.505Z,29.6361
2019-04-05T03:34:15.821Z,29.6361
2019-04-05T03:35:26.975Z,29.6056
2019-04-05T03:36:37.048Z,29.5918
2019-04-05T03:37:47.013Z,29.7108
2019-04-05T03:38:49.354Z,29.6819
2019-04-05T03:39:59.525Z,29.6223
2019-04-05T03:41:01.842Z,29.6040
2019-04-05T03:42:04.145Z,29.5781
2019-04-05T03:43:06.455Z,29.7292
2019-04-05T03:44:08.781Z,29.7108
2019-04-05T03:45:11.086Z,29.6651
2019-04-05T03:46:13.378Z,29.7276
2019-04-05T03:47:15.687Z,29.7108
2019-04-05T03:48:17.991Z,29.7246
2019-04-05T03:49:20.300Z,29.6651
2019-04-05T03:50:22.752Z,29.6651
2019-04-05T03:51:25.081Z,29.5811
2019-04-05T03:52:27.430Z,29.6376
2019-04-05T03:53:29.757Z,29.6681
2019-04-05T03:54:32.079Z,29.7276
2019-04-05T03:55:34.384Z,29.6193
2019-04-05T03:56:38.300Z,29.7276
2019-04-05T03:57:40.762Z,29.6513
2019-04-05T03:58:43.080Z,29.6513
2019-04-05T03:59:45.390Z,29.6834
2019-04-05T04:00:47.693Z,29.6681
2019-04-05T04:01:50.001Z,29.6834
2019-04-05T04:02:52.299Z,29.7276
2019-04-05T04:03:54.628Z,29.7292
2019-04-05T04:04:56.947Z,29.7704
2019-04-05T04:05:59.315Z,29.8146
2019-04-05T04:07:01.673Z,29.6956
2019-04-05T04:08:04.024Z,29.8161
2019-04-05T04:09:06.341Z,29.6651
2019-04-05T04:10:08.645Z,29.6971
2019-04-05T04:11:10.949Z,29.7749
2019-04-05T04:12:13.243Z,29.8299
2019-04-05T04:13:15.547Z,29.7566
2019-04-05T04:14:17.846Z,29.7734
2019-04-05T04:15:20.145Z,29.7429
2019-04-05T04:16:22.451Z,29.8161
2019-04-05T04:17:24.750Z,29.7276
2019-04-05T04:18:27.080Z,29.7734
2019-04-05T04:19:29.377Z,29.7139
2019-04-05T04:20:31.674Z,29.7414
2019-04-05T04:21:33.968Z,29.7566
2019-04-05T04:22:36.271Z,29.7276
2019-04-05T04:23:38.567Z,29.7978
2019-04-05T04:24:40.871Z,29.8421
2019-04-05T04:25:43.191Z,29.8161
2019-04-05T04:26:45.483Z,29.7978
2019-04-05T04:27:47.781Z,29.8146
2019-04-05T04:28:50.101Z,29.8283
2019-04-05T04:29:52.410Z,30.0252
2019-04-05T04:30:54.735Z,29.8009
2019-04-05T04:31:57.041Z,29.6819
2019-04-05T04:32:59.356Z,29.6956
2019-04-05T04:34:01.669Z,29.6864
2019-04-05T04:35:03.977Z,29.7612
2019-04-05T04:36:06.302Z,30.4067
2019-04-05T04:37:08.602Z,29.8802
2019-04-05T04:38:10.905Z,29.9702
2019-04-05T04:39:13.194Z,29.8482
2019-04-05T04:40:15.494Z,30.2281
2019-04-05T04:41:17.831Z,29.8970
2019-04-05T04:42:20.119Z,29.8665
2019-04-05T04:43:22.414Z,29.9290
2019-04-05T04:44:24.739Z,29.9290
2019-04-05T04:45:27.032Z,29.8802
2019-04-05T04:46:29.338Z,30.1869
2019-04-05T04:47:31.634Z,29.9901
2019-04-05T04:48:33.923Z,30.0954
2019-04-05T04:49:36.215Z,30.0343
2019-04-05T04:50:38.507Z,30.1534
2019-04-05T04:51:40.820Z,30.2312
2019-04-05T04:52:43.122Z,30.5287
2019-04-05T04:53:45.425Z,30.3655
2019-04-05T04:54:47.716Z,30.5882
2019-04-05T04:55:50.001Z,30.6950
2019-04-05T04:56:52.306Z,30.7225
2019-04-05T04:57:54.591Z,30.8400
2019-04-05T04:58:56.884Z,30.7530
2019-04-05T04:59:59.214Z,30.8904
2019-04-05T05:01:01.514Z,31.0384
2019-04-05T05:02:03.802Z,30.8766
2019-04-05T05:03:06.095Z,30.9514
2019-04-05T05:04:08.501Z,30.8919
2019-04-05T05:05:10.834Z,30.8171
2019-04-05T05:06:13.127Z,30.7591
2019-04-05T05:07:15.442Z,30.6996
2019-04-05T05:08:17.734Z,30.7164
2019-04-05T05:09:20.020Z,30.7317
2019-04-05T05:10:22.318Z,30.5379
2019-04-05T05:11:24.611Z,30.4646
2019-04-05T05:12:26.930Z,30.6615
2019-04-05T05:13:29.220Z,30.5394
2019-04-05T05:14:31.509Z,30.3288
2019-04-05T05:15:33.796Z,30.2815
2019-04-05T05:16:36.089Z,30.3777
2019-04-05T05:17:39.127Z,30.2541
2019-04-05T05:18:41.529Z,30.5013
2019-04-05T05:19:43.818Z,30.2419
2019-04-05T05:20:46.154Z,30.3059
2019-04-05T05:21:48.438Z,30.2724
2019-04-05T05:22:50.732Z,30.0587
2019-04-05T05:23:53.020Z,30.3014
2019-04-05T05:24:55.303Z,29.9748
2019-04-05T05:25:57.601Z,30.0206
2019-04-05T05:26:59.888Z,29.9290
2019-04-05T05:28:02.185Z,30.9239
2019-04-05T05:29:04.476Z,31.4092
2019-04-05T05:30:06.783Z,31.7235
2019-04-05T05:31:09.079Z,33.6461
2019-04-05T05:32:11.373Z,32.8649
2019-04-05T05:33:13.677Z,33.1380
2019-04-05T05:34:15.961Z,32.9427
2019-04-05T05:35:18.253Z,34.0002
2019-04-05T05:36:20.543Z,34.0261
2019-04-05T05:37:22.832Z,33.4096
2019-04-05T05:38:25.140Z,32.2316
2019-04-05T05:39:27.438Z,33.0465
2019-04-05T05:40:35.195Z,34.1680
2019-04-05T05:41:37.969Z,33.3272
2019-04-05T05:42:40.270Z,33.4874
2019-04-05T05:43:42.571Z,32.9320
2019-04-05T05:44:44.859Z,32.4483
2019-04-05T05:45:47.149Z,32.1828
2019-04-05T05:46:49.448Z,31.8929
2019-04-05T05:47:52.591Z,31.9219
2019-04-05T05:48:54.976Z,31.7113
2019-04-05T05:49:57.337Z,31.4412
2019-04-05T05:50:59.624Z,31.5175
2019-04-05T05:52:01.927Z,31.1742
2019-04-05T05:53:04.225Z,31.0048
2019-04-05T05:54:06.529Z,30.8583
2019-04-05T05:55:08.815Z,30.7958
2019-04-05T05:56:11.143Z,30.7942
2019-04-05T05:57:13.469Z,30.8858
2019-04-05T05:58:15.761Z,30.7774
2019-04-05T05:59:18.083Z,30.7027
2019-04-05T06:00:20.371Z,30.7317
2019-04-05T06:01:22.662Z,30.6752
2019-04-05T06:02:24.966Z,30.6889
2019-04-05T06:03:27.261Z,30.6615
2019-04-05T06:04:29.556Z,30.6615
2019-04-05T06:05:31.857Z,30.6035
2019-04-05T06:06:34.148Z,30.5119
2019-04-05T06:07:36.440Z,30.5119
2019-04-05T06:08:38.740Z,30.4967
2019-04-05T06:09:41.037Z,30.4143
2019-04-05T06:10:43.372Z,30.3960
2019-04-05T06:11:45.654Z,30.4250
2019-04-05T06:12:47.950Z,30.3059
2019-04-05T06:13:50.316Z,30.3227
2019-04-05T06:14:52.627Z,30.2449
2019-04-05T06:15:54.932Z,30.2037
2019-04-05T06:16:57.225Z,30.2190
2019-04-05T06:18:04.808Z,30.2190
2019-04-05T06:19:07.774Z,30.0847
2019-04-05T06:20:10.071Z,30.0984
2019-04-05T06:21:12.365Z,30.0572
2019-04-05T06:22:14.664Z,30.1869
2019-04-05T06:23:16.958Z,30.1320
2019-04-05T06:24:19.252Z,29.8482
2019-04-05T06:25:21.550Z,29.9702
2019-04-05T06:26:23.845Z,29.8924
2019-04-05T06:27:26.142Z,29.9397
2019-04-05T06:28:28.466Z,29.9519
2019-04-05T06:29:30.791Z,29.9397
2019-04-05T06:30:33.083Z,29.8939
2019-04-05T06:31:35.373Z,29.8482
2019-04-05T06:32:37.667Z,29.9290
2019-04-05T06:33:39.957Z,29.8833
2019-04-05T06:34:42.291Z,29.7505
2019-04-05T06:35:44.589Z,29.7612
2019-04-05T06:36:46.887Z,29.7780
2019-04-05T06:37:49.183Z,29.7597
2019-04-05T06:38:51.493Z,29.8070
2019-04-05T06:39:53.868Z,29.7932
2019-04-05T06:40:56.210Z,29.8528
2019-04-05T06:41:58.534Z,29.6910
2019-04-05T06:43:00.834Z,29.6727
2019-04-05T06:44:03.146Z,29.6590
2019-04-05T06:45:05.246Z,29.6330
2019-04-05T06:46:07.610Z,29.6696
2019-04-05T06:47:10.086Z,29.6132
2019-04-05T06:48:18.980Z,29.5674
2019-04-05T06:49:20.644Z,29.5964
2019-04-05T06:50:22.940Z,29.6834
2019-04-05T06:51:25.256Z,29.6086
2019-04-05T06:52:27.553Z,29.6452
2019-04-05T06:53:29.848Z,29.6269
2019-04-05T06:54:32.153Z,29.7505
2019-04-05T06:55:34.471Z,29.7459
2019-04-05T06:56:36.822Z,29.7749
2019-04-05T06:57:39.219Z,29.6010
2019-04-05T06:58:41.537Z,29.6178
2019-04-05T06:59:43.846Z,29.6956
2019-04-05T07:00:56.878Z,29.6269
2019-04-05T07:01:54.415Z,29.5323
2019-04-05T07:02:56.736Z,29.6376
2019-04-05T07:03:59.038Z,29.4865
2019-04-05T07:05:01.359Z,29.4224
2019-04-05T07:06:03.699Z,29.4545
2019-04-05T07:07:05.997Z,29.4209
2019-04-05T07:08:08.312Z,29.5232
2019-04-05T07:09:10.630Z,29.3614
2019-04-05T07:10:12.943Z,29.4713
2019-04-05T07:11:15.259Z,29.2927
2019-04-05T07:12:20.430Z,29.3492
2019-04-05T08:28:34.108Z,28.1666
2019-04-05T08:29:35.760Z,28.2307
2019-04-05T08:30:36.529Z,28.2918
2019-04-05T10:26:29.973Z,27.4250
2019-04-05T10:27:30.506Z,27.6768
2019-04-05T12:12:16.300Z,62.3362
2019-04-05T12:13:17.083Z,60.2869
2019-04-05T12:14:29.601Z,60.4700
2019-04-05T12:15:26.865Z,63.9841
2019-04-05T12:16:29.393Z,61.6403
2019-04-05T12:17:35.065Z,61.2924
2019-04-05T12:18:38.105Z,60.6195
2019-04-05T12:19:40.540Z,60.7584
2019-04-05T12:20:52.316Z,59.4354
2019-04-05T12:21:51.055Z,61.9333
2019-04-05T12:22:53.450Z,60.8225
2019-04-05T12:23:55.864Z,63.1327
2019-04-05T12:25:00.575Z,62.0798
2019-04-05T12:26:05.173Z,59.5712
2019-04-05T12:27:07.643Z,58.6328
2019-04-05T12:28:10.736Z,59.6628
2019-04-05T12:29:13.371Z,60.4746
2019-04-05T12:30:15.845Z,59.1791
2019-04-05T12:31:18.339Z,60.5417
2019-04-05T12:32:33.012Z,61.2329
2019-04-05T12:33:28.207Z,59.8321
2019-04-05T12:34:30.613Z,61.5488
2019-04-05T12:35:33.012Z,61.6907
2019-04-05T12:36:35.428Z,63.8575
2019-04-05T12:37:49.513Z,61.2650
2019-04-05T12:38:46.155Z,62.7726
2019-04-05T12:39:48.595Z,61.2528
2019-04-05T12:40:51.066Z,62.9496
2019-04-05T12:41:52.619Z,62.8992
2019-04-05T12:42:55.067Z,63.5996
2019-04-05T12:43:58.383Z,64.3427
2019-04-05T12:45:02.377Z,64.3153
2019-04-05T12:46:04.783Z,65.5131
2019-04-05T12:47:06.325Z,63.4318
2019-04-05T12:48:08.754Z,63.2425
2019-04-05T12:49:11.179Z,64.2512
2019-04-05T12:50:14.629Z,69.0654
2019-04-05T12:51:16.878Z,66.0761
2019-04-05T12:52:23.054Z,64.1077
2019-04-05T12:53:27.026Z,63.8712
2019-04-05T12:54:29.494Z,64.9332
2019-04-05T12:55:31.903Z,62.4277
2019-04-05T12:56:34.381Z,67.0573
2019-04-05T12:57:36.783Z,63.2975
2019-04-05T12:58:39.215Z,62.0066
2019-04-05T12:59:41.619Z,63.4501
2019-04-05T13:00:44.089Z,62.4918
2019-04-05T13:01:46.630Z,62.7588
2019-04-05T13:02:50.382Z,62.9740
2019-04-05T13:03:53.329Z,64.7593
2019-04-05T13:04:55.778Z,63.2486
2019-04-05T13:05:58.219Z,64.0269
2019-04-05T13:07:00.626Z,65.4124
2019-04-05T13:08:03.065Z,64.8371
2019-04-05T13:09:06.131Z,62.6566
2019-04-05T13:10:09.764Z,62.6383
2019-04-05T13:11:13.211Z,65.3803
2019-04-05T13:12:15.679Z,61.3764
2019-04-05T13:13:18.131Z,63.5355
2019-04-05T13:14:20.555Z,64.9424
2019-04-05T13:15:22.971Z,62.0890
2019-04-05T13:16:25.396Z,63.8758
2019-04-05T13:17:31.027Z,63.4501
2019-04-05T13:18:33.999Z,65.5817
2019-04-05T13:19:36.444Z,65.1255
2019-04-05T13:20:38.904Z,61.7563
2019-04-05T13:21:41.329Z,63.4501
2019-04-05T13:22:43.743Z,66.1631
2019-04-05T13:23:46.168Z,64.3198
2019-04-05T13:24:48.593Z,62.6062
2019-04-05T13:25:51.081Z,61.9486
2019-04-05T13:26:53.592Z,63.5279
2019-04-05T13:27:56.013Z,61.0910
2019-04-05T13:28:58.459Z,64.6021
2019-04-05T13:30:00.934Z,62.7909
2019-04-05T13:31:03.477Z,62.9145
2019-04-05T13:32:05.874Z,64.4800
2019-04-05T13:33:07.357Z,62.1958
2019-04-05T13:34:09.781Z,63.3310
2019-04-05T13:35:12.463Z,64.0940
2019-04-05T13:36:14.889Z,65.0782
2019-04-05T13:37:20.413Z,63.0930
2019-04-05T13:38:23.154Z,62.1363
2019-04-05T13:39:27.495Z,63.6912
2019-04-05T13:40:32.299Z,60.3769
2019-04-05T13:41:34.731Z,62.6535
2019-04-05T13:42:37.150Z,62.4460
2019-04-05T13:43:39.590Z,62.0951
2019-04-05T13:44:42.107Z,61.8387
2019-04-05T13:45:44.565Z,60.7248
2019-04-05T13:46:46.999Z,62.2736
2019-04-05T13:47:49.451Z,62.0340
2019-04-05T13:48:50.924Z,64.3519
2019-04-05T13:49:53.390Z,61.8006
2019-04-05T13:50:55.880Z,62.4872
2019-04-05T13:51:58.288Z,62.4781
2019-04-05T13:53:00.770Z,62.0386
2019-04-05T13:54:03.191Z,63.3295
2019-04-05T13:55:05.688Z,60.9903
2019-04-05T13:56:08.651Z,62.5620
2019-04-05T13:57:12.975Z,62.1439
2019-04-05T13:58:15.422Z,62.8763
2019-04-05T13:59:18.857Z,64.1459
2019-04-05T14:00:21.344Z,62.8229
2019-04-05T14:01:23.775Z,61.4160
2019-04-05T14:02:27.168Z,63.9353
2019-04-05T14:03:29.604Z,62.3087
2019-04-05T14:04:32.024Z,60.6149
2019-04-05T14:05:34.435Z,64.5655
2019-04-05T14:06:36.846Z,62.0981
2019-04-05T14:07:39.266Z,61.6037
2019-04-05T14:08:42.050Z,60.5661
2019-04-05T14:09:44.502Z,60.8072
2019-04-05T14:10:46.930Z,60.5920
2019-04-05T14:11:49.362Z,60.6104
2019-04-05T14:12:52.005Z,59.3072
2019-04-05T14:13:54.590Z,61.4542
2019-04-05T14:14:57.089Z,60.6699
2019-04-05T14:15:59.578Z,62.0294
2019-04-05T14:17:02.089Z,59.2737
2019-04-05T14:18:04.609Z,63.2258
2019-04-05T14:19:10.444Z,58.8800
2019-04-05T14:20:12.846Z,59.9252
2019-04-05T14:21:22.503Z,60.4044
2019-04-05T14:22:40.023Z,57.5448
2019-04-05T14:23:57.444Z,58.1353
2019-04-05T14:25:14.870Z,57.9324
2019-04-05T14:26:32.304Z,59.9008
2019-04-05T14:27:49.249Z,59.3332
2019-04-05T14:29:06.701Z,60.9323
2019-04-05T14:30:25.115Z,60.1541
2019-04-05T14:31:43.531Z,59.2981
2019-04-05T14:33:00.974Z,58.1537
2019-04-05T14:34:18.401Z,59.0906
2019-04-05T14:35:34.845Z,57.7050
2019-04-05T14:36:52.450Z,59.6719
2019-04-05T14:38:11.774Z,54.7616
2019-04-05T14:39:29.374Z,57.1969
2019-04-05T14:40:46.853Z,56.5911
2019-04-05T14:42:09.926Z,56.5057
2019-04-05T14:43:27.660Z,59.3759
2019-04-05T14:44:45.102Z,59.9023
2019-04-05T14:46:02.913Z,59.8138
2019-04-05T14:47:20.539Z,58.1842
2019-04-05T14:48:37.979Z,58.4039
2019-04-05T14:49:55.434Z,60.0580
2019-04-05T14:51:11.930Z,59.8459
2019-04-05T14:52:31.179Z,60.2457
2019-04-05T14:53:49.234Z,59.5987
2019-04-05T14:55:06.682Z,57.5570
2019-04-05T14:56:24.138Z,57.6669
2019-04-05T14:57:41.574Z,58.3307
2019-04-05T14:58:59.013Z,58.3642
2019-04-05T15:00:16.472Z,60.0214
2019-04-05T15:01:33.954Z,57.8332
2019-04-05T15:02:51.425Z,58.6465
2019-04-05T15:04:11.821Z,58.1888
2019-04-05T15:05:29.501Z,58.3688
2019-04-05T15:06:48.668Z,59.6506
2019-04-05T15:08:08.012Z,59.2508
2019-04-05T15:09:25.719Z,61.4588
2019-04-05T15:10:43.302Z,62.0203
2019-04-05T15:12:00.818Z,59.3256
2019-04-05T15:13:18.269Z,59.6506
2019-04-05T15:14:35.698Z,58.9075
2019-04-05T15:15:53.147Z,58.8769
2019-04-05T15:17:10.601Z,57.8790
2019-04-05T15:18:29.011Z,63.1983
2019-04-05T15:19:47.433Z,61.4954
2019-04-05T15:21:06.491Z,60.2579
2019-04-05T15:22:24.121Z,59.0265
2019-04-05T15:23:41.390Z,61.4939
2019-04-05T15:24:58.948Z,59.5300
2019-04-05T15:26:16.394Z,63.3448
2019-04-05T15:27:25.304Z,58.2025
2019-04-05T15:28:42.722Z,59.3195
2019-04-05T15:30:00.180Z,57.2152
2019-04-05T15:31:17.663Z,58.1216
2019-04-05T15:32:35.104Z,59.2844
2019-04-05T15:33:53.579Z,59.1134
2019-04-05T15:35:12.968Z,57.8408
2019-04-05T15:36:31.583Z,60.1816
2019-04-05T15:37:49.719Z,58.4268
2019-04-05T15:39:07.147Z,59.6139
2019-04-05T15:40:24.637Z,59.0280
2019-04-05T15:41:43.104Z,60.4959
2019-04-05T15:43:00.553Z,59.3118
2019-04-05T15:44:17.973Z,58.8449
2019-04-05T15:45:35.405Z,59.8001
2019-04-05T15:46:53.822Z,57.6944
2019-04-05T15:48:03.280Z,58.8251
2019-04-05T15:49:21.612Z,57.1313
2019-04-05T15:50:39.649Z,57.3419
2019-04-05T15:51:58.925Z,57.5586
2019-04-05T15:53:16.537Z,58.8907
2019-04-05T15:54:33.989Z,59.2371
2019-04-05T15:55:51.474Z,57.4945
2019-04-05T15:57:08.908Z,60.0519
2019-04-05T15:58:26.354Z,59.4980
2019-04-05T15:59:45.127Z,57.0687
2019-04-05T16:01:04.473Z,56.9070
2019-04-05T16:02:22.378Z,57.2824
2019-04-05T16:03:39.839Z,60.5142
2019-04-05T16:04:57.278Z,58.8403
2019-04-05T16:06:14.754Z,57.1267
2019-04-05T16:07:32.208Z,60.0382
2019-04-05T16:08:49.660Z,58.1949
2019-04-05T16:10:07.086Z,57.9705
2019-04-05T16:11:24.521Z,59.7498
2019-04-05T16:12:41.954Z,61.2100
2019-04-05T16:13:59.445Z,58.8022
2019-04-05T16:15:16.944Z,57.7005
2019-04-05T16:16:35.474Z,57.3938
2019-04-05T16:17:52.939Z,56.2493
2019-04-05T16:19:11.406Z,56.9848
2019-04-05T16:20:20.336Z,56.4965
2019-04-05T16:21:37.794Z,56.8383
2019-04-05T16:22:55.224Z,56.7697
2019-04-05T16:24:12.679Z,58.2498
2019-04-05T16:25:30.155Z,58.3185
2019-04-05T16:26:47.596Z,61.7517
2019-04-05T16:28:05.015Z,57.6577
2019-04-05T16:29:22.458Z,59.0234
2019-04-05T16:30:39.966Z,58.3780
2019-04-05T16:31:57.488Z,58.3947
2019-04-05T16:33:14.911Z,58.5611
2019-04-05T16:34:32.461Z,57.3251
2019-04-05T16:35:51.645Z,59.3652
2019-04-05T16:37:08.078Z,56.6934
2019-04-05T16:38:25.510Z,59.1562
2019-04-05T16:39:42.935Z,59.2554
2019-04-05T16:40:59.343Z,57.8470
2019-04-05T16:42:16.789Z,61.5900
2019-04-05T16:43:34.245Z,58.4634
2019-04-05T16:44:51.637Z,58.9960
2019-04-05T16:46:09.046Z,60.3082
2019-04-05T16:47:26.430Z,58.5290
2019-04-05T16:48:43.880Z,59.5987
2019-04-05T16:50:01.286Z,58.4863
2019-04-05T16:51:18.680Z,64.4709
2019-04-05T16:52:44.897Z,64.3458
2019-04-05T16:53:58.481Z,61.9852
2019-04-05T16:55:15.885Z,58.9532
2019-04-05T16:56:33.383Z,65.1759
2019-04-05T16:57:50.805Z,61.8616
2019-04-05T16:59:08.237Z,61.7227
2019-04-05T17:00:25.696Z,66.4027
2019-04-05T17:01:43.163Z,67.3030
2019-04-05T17:03:00.607Z,68.6732
2019-04-05T17:04:18.043Z,70.9209
2019-04-05T17:05:35.517Z,73.3425
2019-04-05T17:06:52.999Z,76.3333
2019-04-05T17:08:10.477Z,78.3413
2019-04-05T17:09:19.336Z,78.6664
2019-04-05T17:10:36.780Z,77.0703
2019-04-05T17:11:54.198Z,77.4868
2019-04-05T17:13:11.647Z,73.2509
2019-04-05T17:14:29.239Z,70.5913
2019-04-05T17:15:46.717Z,71.8212
2019-04-05T17:17:04.182Z,73.9818
2019-04-05T17:18:21.642Z,75.6222
2019-04-05T17:19:38.113Z,75.5856
2019-04-05T17:20:54.625Z,71.4458
2019-04-05T17:22:12.165Z,72.9198
2019-04-05T17:23:32.875Z,76.8002
2019-04-05T17:24:50.734Z,78.3551
2019-04-05T17:26:08.346Z,79.4583
2019-04-05T17:27:25.865Z,79.6338
2019-04-05T17:28:43.375Z,80.5127
2019-04-05T17:30:00.831Z,81.7304
2019-04-05T17:31:18.299Z,81.8265
2019-04-05T17:32:35.732Z,80.0076
2019-04-05T17:33:53.231Z,79.1623
2019-04-05T17:35:10.706Z,79.2401
2019-04-05T17:36:28.227Z,81.1566
2019-04-05T17:37:37.295Z,79.2813
2019-04-05T17:38:54.818Z,80.5890
2019-04-05T17:40:12.316Z,82.7771
2019-04-05T17:41:29.767Z,79.6643
2019-04-05T17:42:47.265Z,77.8195
2019-04-05T17:44:04.726Z,80.2106
2019-04-05T17:45:22.187Z,79.6735
2019-04-05T17:46:39.736Z,81.5595
2019-04-05T17:47:57.185Z,82.4475
2019-04-05T17:49:14.681Z,83.6210
2019-04-05T17:50:31.207Z,83.1342
2019-04-05T17:51:48.661Z,82.0554
2019-04-05T17:53:12.618Z,81.5961
2019-04-05T17:54:28.610Z,82.8550
2019-04-05T17:55:46.256Z,83.7720
2019-04-05T17:57:03.706Z,84.0284
2019-04-05T17:58:21.240Z,83.8666
2019-04-05T17:59:38.682Z,84.9622
2019-04-05T18:00:56.132Z,84.5212
2019-04-05T18:02:13.661Z,85.1637
2019-04-05T18:03:31.100Z,84.5090
2019-04-05T18:04:48.554Z,83.4653
2019-04-05T18:06:06.097Z,83.6011
2019-04-05T18:07:24.663Z,83.4958
2019-04-05T18:08:42.158Z,83.8392
2019-04-05T18:09:59.666Z,83.8499
2019-04-05T18:11:17.164Z,84.8936
2019-04-05T18:12:34.635Z,85.0309
2019-04-05T18:13:52.132Z,86.8009
2019-04-05T18:15:09.625Z,86.9291
2019-04-05T18:16:27.162Z,86.0548
2019-04-05T18:17:44.600Z,85.4795